Time;durP1;ratioP1;P1;durP2;ratioP2;P2;SDS_P1;SDS_P2;PMS_P1;PMS_P2;Temp;Humidity;BMP_temperature;BMP_pressure;BME280_temperature;BME280_humidity;BME280_pressure;Samples;Min_cycle;Max_cycle;Signal;HPM_P1;HPM_P2
2023/06/12 00:01:36;;;;;;;0.00;0.00;;;;;;;20.77;95.66;101604.31;10436137;28;20049;-80
2023/06/12 00:06:38;;;;;;;0.30;0.10;;;;;;;20.40;100.00;101607.06;10451387;28;20091;-81
2023/06/12 00:11:41;;;;;;;0.20;0.20;;;;;;;20.52;96.74;101609.63;10431593;28;20463;-81
2023/06/12 00:16:43;;;;;;;0.38;0.38;;;;;;;19.56;100.00;101604.59;10447861;28;20049;-80
2023/06/12 00:21:45;;;;;;;0.50;0.45;;;;;;;19.91;100.00;101605.47;10429724;28;20049;-81
2023/06/12 00:26:47;;;;;;;0.60;0.20;;;;;;;19.95;100.00;101608.06;10446315;28;20297;-80
2023/06/12 00:31:48;;;;;;;0.00;0.00;;;;;;;19.30;100.00;101605.47;10445176;28;20045;-80
2023/06/12 00:36:50;;;;;;;0.05;0.05;;;;;;;19.56;100.00;101608.97;10452880;28;20423;-80
2023/06/12 00:41:52;;;;;;;0.00;0.00;;;;;;;19.52;100.00;101601.97;10439415;28;20076;-81
2023/06/12 00:46:55;;;;;;;0.03;0.03;;;;;;;19.64;100.00;101597.63;10457041;28;20067;-80
2023/06/12 00:51:57;;;;;;;0.00;0.00;;;;;;;19.36;100.00;101590.66;10447457;28;20305;-80
2023/06/12 00:56:59;;;;;;;0.10;0.10;;;;;;;19.52;100.00;101591.53;10452269;28;20051;-80
2023/06/12 01:02:03;;;;;;;0.45;0.28;;;;;;;19.43;100.00;101595.03;10453328;28;20044;-81
2023/06/12 01:07:29;;;;;;;0.00;0.00;;;;;;;19.65;100.00;101594.13;10432209;28;20042;-81
2023/06/12 01:12:34;;;;;;;0.00;0.00;;;;;;;19.28;100.00;101588.06;10462353;28;20052;-81
2023/06/12 01:17:40;;;;;;;0.00;0.00;;;;;;;19.42;100.00;101588.06;10452443;28;20077;-81
2023/06/12 01:22:59;;;;;;;0.03;0.03;;;;;;;19.23;100.00;101590.66;10435966;28;20044;-81
2023/06/12 01:28:37;;;;;;;0.22;0.20;;;;;;;18.84;100.00;101590.56;10452486;28;20081;-81
2023/06/12 01:33:44;;;;;;;0.22;0.10;;;;;;;18.55;100.00;101600.91;10435539;28;20052;-81
2023/06/12 01:38:52;;;;;;;0.20;0.10;;;;;;;18.87;100.00;101587.09;10452448;28;20107;-81
2023/06/12 01:43:54;;;;;;;0.10;0.05;;;;;;;19.08;100.00;101606.31;10450669;28;20142;-81
2023/06/12 01:48:56;;;;;;;0.10;0.10;;;;;;;18.91;100.00;101594.06;10446567;28;20082;-81
2023/06/12 01:53:58;;;;;;;0.10;0.10;;;;;;;17.92;100.00;101598.81;10436175;28;20045;-81
2023/06/12 01:59:01;;;;;;;0.20;0.20;;;;;;;18.27;100.00;101603.41;10430285;28;20041;-81
2023/06/12 02:04:12;;;;;;;0.10;0.10;;;;;;;18.28;100.00;101599.03;10418393;28;20113;-81
2023/06/12 02:09:14;;;;;;;0.10;0.10;;;;;;;18.23;100.00;101609.44;10452063;28;20137;-81
2023/06/12 02:14:16;;;;;;;0.00;0.00;;;;;;;18.38;100.00;101600.84;10447549;28;20122;-81
2023/06/12 02:19:18;;;;;;;0.00;0.00;;;;;;;18.24;100.00;101598.16;10434602;28;20388;-81
2023/06/12 02:24:24;;;;;;;0.00;0.00;;;;;;;18.05;100.00;101603.28;10449404;28;20055;-81
2023/06/12 02:29:26;;;;;;;0.32;0.10;;;;;;;18.16;100.00;101611.19;10439332;28;20451;-81
2023/06/12 02:34:30;;;;;;;0.00;0.00;;;;;;;18.39;100.00;101606.06;10441169;28;20041;-81
2023/06/12 02:39:31;;;;;;;0.45;0.20;;;;;;;18.49;100.00;101608.72;10436959;28;20033;-82
2023/06/12 02:44:36;;;;;;;0.50;0.40;;;;;;;18.53;100.00;101607.84;10449696;28;20041;-81
2023/06/12 02:49:44;;;;;;;0.10;0.10;;;;;;;18.10;100.00;101608.50;10433403;28;20044;-81
2023/06/12 02:54:55;;;;;;;0.63;0.20;;;;;;;18.48;100.00;101601.75;10448659;28;20056;-81
2023/06/12 02:59:57;;;;;;;0.10;0.10;;;;;;;18.63;100.00;101604.44;10461217;28;20072;-81
2023/06/12 03:05:05;;;;;;;0.03;0.03;;;;;;;18.77;100.00;101599.22;10463568;28;20409;-81
2023/06/12 03:10:08;;;;;;;2.90;0.20;;;;;;;18.65;100.00;101607.03;10446963;28;20049;-81
2023/06/12 03:15:10;;;;;;;0.77;0.13;;;;;;;18.62;100.00;101597.47;10471253;28;20069;-81
2023/06/12 03:20:14;;;;;;;0.47;0.22;;;;;;;18.62;100.00;101605.28;10440177;28;20415;-81
2023/06/12 03:25:18;;;;;;;0.10;0.10;;;;;;;18.73;100.00;101609.69;10458836;28;20064;-81
2023/06/12 03:30:21;;;;;;;0.22;0.22;;;;;;;18.82;100.00;101604.47;10451595;28;20492;-81
2023/06/12 03:35:23;;;;;;;0.22;0.10;;;;;;;18.35;100.00;101609.53;10446517;28;20048;-81
2023/06/12 03:40:25;;;;;;;0.00;0.00;;;;;;;18.53;100.00;101607.84;10460762;28;20051;-81
2023/06/12 03:45:27;;;;;;;0.20;0.10;;;;;;;18.33;100.00;101611.25;10446977;28;20049;-81
2023/06/12 03:50:31;;;;;;;0.45;0.15;;;;;;;17.98;100.00;101606.72;10441785;28;20072;-81
2023/06/12 03:55:34;;;;;;;0.17;0.08;;;;;;;17.95;100.00;101609.28;10430727;28;20902;-81
2023/06/12 04:00:36;;;;;;;0.00;0.00;;;;;;;18.32;100.00;101614.72;10446183;28;20049;-81
2023/06/12 04:05:38;;;;;;;0.00;0.00;;;;;;;18.68;100.00;101607.91;10445336;28;20078;-81
2023/06/12 04:10:40;;;;;;;0.40;0.30;;;;;;;19.19;100.00;101612.41;10446178;28;20565;-82
2023/06/12 04:15:44;;;;;;;0.38;0.35;;;;;;;19.18;100.00;101615.88;10438185;28;20479;-82
2023/06/12 04:20:46;;;;;;;0.00;0.00;;;;;;;19.16;100.00;101615.91;10445349;28;20588;-82
2023/06/12 04:25:50;;;;;;;0.00;0.00;;;;;;;19.20;100.00;101614.16;10450466;28;20049;-82
2023/06/12 04:30:53;;;;;;;0.55;0.40;;;;;;;19.30;100.00;101613.31;10455810;28;20041;-82
2023/06/12 04:35:56;;;;;;;0.20;0.20;;;;;;;19.39;100.00;101609.81;10417864;28;20053;-82
2023/06/12 04:40:58;;;;;;;0.43;0.28;;;;;;;19.91;100.00;101601.13;10430618;28;20137;-82
2023/06/12 04:46:01;;;;;;;0.10;0.10;;;;;;;20.06;100.00;101609.81;10429454;28;20033;-83
2023/06/12 04:51:03;;;;;;;0.98;0.40;;;;;;;20.16;100.00;101611.50;10418980;28;20045;-82
2023/06/12 04:56:08;;;;;;;0.10;0.10;;;;;;;20.52;100.00;101604.41;10440835;28;20147;-82
2023/06/12 05:01:10;;;;;;;0.25;0.20;;;;;;;20.55;100.00;101609.63;10432918;28;20095;-82
2023/06/12 05:06:13;;;;;;;0.40;0.10;;;;;;;21.01;100.00;101605.06;10430739;28;20136;-82
2023/06/12 05:11:14;;;;;;;0.20;0.20;;;;;;;21.35;100.00;101616.19;10457571;28;20059;-82
2023/06/12 05:16:16;;;;;;;0.57;0.20;;;;;;;21.07;100.00;101613.72;10445064;28;20473;-82
2023/06/12 05:21:19;;;;;;;0.10;0.10;;;;;;;21.27;100.00;101609.22;10422389;28;20132;-82
2023/06/12 05:26:21;;;;;;;0.10;0.10;;;;;;;21.53;100.00;101604.66;10427541;28;20051;-82
2023/06/12 05:31:22;;;;;;;0.43;0.40;;;;;;;21.26;100.00;101608.38;10442802;28;20049;-82
2023/06/12 05:36:26;;;;;;;0.15;0.15;;;;;;;21.48;100.00;101608.22;10457255;28;20393;-82
2023/06/12 05:41:28;;;;;;;0.20;0.20;;;;;;;21.47;100.00;101612.59;10434948;28;20049;-82
2023/06/12 05:46:31;;;;;;;0.40;0.30;;;;;;;21.98;100.00;101606.03;10450041;28;20041;-81
2023/06/12 05:51:35;;;;;;;0.50;0.28;;;;;;;22.14;100.00;101604.97;10462608;28;20082;-81
2023/06/12 05:56:37;;;;;;;0.15;0.10;;;;;;;22.41;100.00;101608.19;10434885;28;20447;-81
2023/06/12 06:01:39;;;;;;;1.52;1.35;;;;;;;22.58;100.00;101607.13;10450830;28;20092;-81
2023/06/12 06:06:42;;;;;;;0.80;0.65;;;;;;;22.65;98.03;101606.16;10446455;28;20156;-81
2023/06/12 06:11:45;;;;;;;0.20;0.20;;;;;;;22.93;96.73;101606.63;10451874;28;20077;-81
2023/06/12 06:16:49;;;;;;;0.30;0.30;;;;;;;23.02;98.06;101616.13;10447546;28;20080;-81
2023/06/12 06:21:59;;;;;;;0.32;0.30;;;;;;;23.35;97.31;101613.03;10449634;28;20044;-83
2023/06/12 06:27:03;;;;;;;0.20;0.20;;;;;;;23.68;96.49;101618.63;10445205;28;20060;-81
2023/06/12 06:32:05;;;;;;;1.08;0.63;;;;;;;23.50;98.17;101622.41;10446234;28;20052;-82
2023/06/12 06:37:09;;;;;;;0.93;0.47;;;;;;;23.53;95.76;101627.63;10457967;28;20045;-82
2023/06/12 06:42:12;;;;;;;0.50;0.30;;;;;;;23.63;94.39;101629.22;10435692;28;20049;-81
2023/06/12 06:47:36;;;;;;;0.13;0.10;;;;;;;23.89;94.46;101635.75;10442959;28;20041;-82
2023/06/12 06:52:41;;;;;;;0.82;0.55;;;;;;;24.18;96.85;101637.91;10464783;28;20048;-81
2023/06/12 06:57:45;;;;;;;0.50;0.50;;;;;;;24.44;91.68;101623.31;10430661;28;20067;-82
2023/06/12 07:02:50;;;;;;;0.73;0.50;;;;;;;25.83;93.41;101613.97;10449199;28;20049;-81
2023/06/12 07:07:55;;;;;;;0.55;0.47;;;;;;;26.22;91.76;101621.72;10449217;28;20052;-80
2023/06/12 07:13:05;;;;;;;0.82;0.38;;;;;;;26.20;85.75;101623.53;10461665;28;20392;-82
2023/06/12 07:18:12;;;;;;;0.45;0.35;;;;;;;27.16;87.49;101607.44;10450697;28;20049;-80
2023/06/12 07:23:14;;;;;;;0.40;0.30;;;;;;;28.23;83.70;101598.50;10457247;28;20498;-81
2023/06/12 07:28:16;;;;;;;0.85;0.55;;;;;;;28.34;83.30;101601.63;10428659;28;20138;-81
2023/06/12 07:33:18;;;;;;;0.22;0.20;;;;;;;28.88;79.95;101595.16;10446205;28;20077;-81
2023/06/12 07:38:20;;;;;;;0.20;0.20;;;;;;;28.84;77.77;101593.56;10450794;28;20511;-81
2023/06/12 07:43:22;;;;;;;0.10;0.10;;;;;;;28.99;74.04;101590.28;10444791;28;20488;-80
2023/06/12 07:48:24;;;;;;;0.60;0.43;;;;;;;28.70;73.38;101592.34;10451935;28;20515;-80
2023/06/12 07:53:26;;;;;;;0.65;0.47;;;;;;;29.55;72.61;101585.31;10434755;28;20064;-80
2023/06/12 07:58:42;;;;;;;1.00;0.45;;;;;;;29.75;67.72;101589.78;10448736;28;20135;-78
2023/06/12 08:03:46;;;;;;;0.20;0.20;;;;;;;29.45;69.06;101584.88;10444917;28;20094;-78
2023/06/12 08:08:50;;;;;;;0.65;0.50;;;;;;;29.79;66.28;101582.53;10439545;28;20041;-78
2023/06/12 08:13:53;;;;;;;0.55;0.38;;;;;;;30.63;69.36;101580.47;10445617;28;20041;-78
2023/06/12 08:18:57;;;;;;;0.57;0.47;;;;;;;30.99;70.09;101576.94;10451763;28;20070;-77
2023/06/12 08:24:07;;;;;;;0.20;0.20;;;;;;;30.90;66.42;101580.06;10429392;28;20044;-78
2023/06/12 08:29:10;;;;;;;0.98;0.52;;;;;;;31.93;69.30;101575.75;10456492;28;20059;-77
2023/06/12 08:34:14;;;;;;;0.50;0.30;;;;;;;32.69;61.42;101566.25;10438080;28;20495;-79
2023/06/12 08:39:16;;;;;;;0.10;0.10;;;;;;;32.88;65.49;101569.59;10469513;28;20099;-77
2023/06/12 08:44:23;;;;;;;0.93;0.40;;;;;;;31.90;57.66;101574.13;10445442;28;20080;-77
2023/06/12 08:49:26;;;;;;;0.17;0.10;;;;;;;32.43;55.50;101556.13;10455763;28;20519;-78
2023/06/12 08:54:28;;;;;;;0.77;0.55;;;;;;;32.81;55.05;101557.56;10452929;28;20076;-78
2023/06/12 08:59:30;;;;;;;2.00;0.40;;;;;;;32.34;53.48;101558.47;10451012;28;20488;-77
2023/06/12 09:05:08;;;;;;;0.30;0.25;;;;;;;32.35;51.25;101549.53;10436131;28;20048;-79
2023/06/12 09:10:14;;;;;;;0.65;0.60;;;;;;;32.47;51.59;101545.31;10408355;28;20053;-77
2023/06/12 09:15:17;;;;;;;0.28;0.28;;;;;;;32.22;48.26;101557.34;10445177;28;20140;-78
2023/06/12 09:20:26;;;;;;;1.00;0.90;;;;;;;32.62;47.96;101543.56;10461954;28;20107;-78
2023/06/12 09:25:44;;;;;;;1.45;0.80;;;;;;;32.79;48.61;101539.94;10487472;28;20482;-81
2023/06/12 09:31:05;;;;;;;0.77;0.50;;;;;;;32.94;48.49;101544.38;10444408;28;20040;-77
2023/06/12 09:36:11;;;;;;;0.20;0.20;;;;;;;32.92;45.50;101548.94;10482450;28;20856;-78
2023/06/12 09:41:13;;;;;;;0.28;0.28;;;;;;;32.90;49.33;101537.50;10463902;28;20063;-77
2023/06/12 09:46:16;;;;;;;0.45;0.40;;;;;;;32.70;47.63;101541.31;10474718;28;20542;-77
2023/06/12 09:51:20;;;;;;;0.20;0.20;;;;;;;34.28;48.12;101531.78;10460835;28;20132;-77
2023/06/12 09:56:39;;;;;;;0.35;0.30;;;;;;;33.95;44.20;101535.66;10438594;28;20040;-79
2023/06/12 10:01:50;;;;;;;0.30;0.20;;;;;;;33.46;46.08;101543.09;10458702;28;20051;-77
2023/06/12 10:07:01;;;;;;;0.20;0.20;;;;;;;33.85;49.46;101541.56;10473069;28;20041;-77
2023/06/12 10:12:04;;;;;;;0.35;0.30;;;;;;;33.23;47.42;101533.75;10461376;28;20045;-78
2023/06/12 10:17:06;;;;;;;0.82;0.40;;;;;;;34.61;48.98;101538.56;10439759;28;20099;-77
2023/06/12 10:22:08;;;;;;;0.85;0.40;;;;;;;34.39;45.82;101533.78;10459145;28;20056;-78
2023/06/12 10:27:11;;;;;;;0.13;0.13;;;;;;;33.93;46.61;101521.53;10446149;28;20057;-78
2023/06/12 10:32:14;;;;;;;2.47;0.93;;;;;;;33.08;46.80;101516.88;10469512;28;20053;-77
2023/06/12 10:37:33;;;;;;;1.60;0.50;;;;;;;33.87;47.05;101522.78;10459696;28;20103;-77
2023/06/12 10:42:47;;;;;;;0.80;0.52;;;;;;;33.32;48.37;101524.38;10441240;28;20401;-78
2023/06/12 10:48:05;;;;;;;0.40;0.35;;;;;;;34.53;49.45;101519.47;10441357;28;20160;-77
2023/06/12 10:53:12;;;;;;;0.28;0.28;;;;;;;33.39;45.16;101512.38;10461452;28;20040;-76
2023/06/12 10:58:18;;;;;;;0.67;0.50;;;;;;;33.06;43.57;101516.09;10463908;28;20080;-77
2023/06/12 11:03:34;;;;;;;0.28;0.28;;;;;;;33.79;48.17;101503.69;10439565;28;20049;-78
2023/06/12 11:08:36;;;;;;;0.43;0.38;;;;;;;33.13;42.74;101512.09;10483913;28;20052;-78
2023/06/12 11:13:42;;;;;;;0.60;0.60;;;;;;;33.85;45.36;101500.66;10465167;28;20128;-77
2023/06/12 11:18:44;;;;;;;0.80;0.57;;;;;;;33.12;47.14;101505.03;10462018;28;20068;-78
2023/06/12 11:23:48;;;;;;;0.60;0.47;;;;;;;33.49;45.84;101507.31;10455446;28;20101;-77
2023/06/12 11:28:54;;;;;;;0.52;0.32;;;;;;;33.50;45.57;101509.88;10459860;28;20416;-77
2023/06/12 11:33:58;;;;;;;0.50;0.50;;;;;;;33.74;46.65;101493.28;10470571;28;20047;-77
2023/06/12 11:39:02;;;;;;;0.98;0.55;;;;;;;34.46;44.08;101486.94;10453960;28;20060;-78
2023/06/12 11:44:07;;;;;;;0.50;0.45;;;;;;;33.00;43.56;101493.28;10445441;28;20041;-77
2023/06/12 11:49:08;;;;;;;0.28;0.28;;;;;;;34.16;41.79;101496.84;10438342;28;20045;-79
2023/06/12 11:54:14;;;;;;;0.55;0.32;;;;;;;34.24;45.63;101484.78;10456649;28;20043;-77
2023/06/12 11:59:16;;;;;;;0.75;0.30;;;;;;;35.21;46.08;101482.81;10461420;28;20045;-77
2023/06/12 12:04:18;;;;;;;0.90;0.52;;;;;;;33.44;45.32;101478.22;10438126;28;20041;-77
2023/06/12 12:09:25;;;;;;;0.30;0.30;;;;;;;33.81;43.52;101475.91;10438349;28;20053;-78
2023/06/12 12:14:26;;;;;;;0.68;0.50;;;;;;;33.14;42.85;101479.13;10438191;28;20045;-79
2023/06/12 12:19:29;;;;;;;0.73;0.30;;;;;;;33.94;44.40;101470.66;10454224;28;20408;-77
2023/06/12 12:24:38;;;;;;;0.43;0.43;;;;;;;33.52;43.09;101465.25;10423910;28;20040;-76
2023/06/12 12:29:40;;;;;;;0.40;0.40;;;;;;;34.10;45.35;101454.47;10465621;28;20056;-78
2023/06/12 12:34:59;;;;;;;0.30;0.28;;;;;;;33.03;41.22;101469.09;10473202;28;20045;-77
2023/06/12 12:40:08;;;;;;;0.30;0.15;;;;;;;33.36;46.00;101453.81;10437542;28;20053;-78
2023/06/12 12:45:15;;;;;;;5.00;1.20;;;;;;;33.60;41.37;101455.91;10419177;28;20049;-78
2023/06/12 12:50:18;;;;;;;0.15;0.15;;;;;;;33.13;41.99;101452.53;10469342;28;20395;-79
2023/06/12 12:55:24;;;;;;;0.80;0.38;;;;;;;33.14;43.99;101452.44;10465916;28;20086;-77
2023/06/12 13:00:26;;;;;;;0.13;0.13;;;;;;;34.36;45.29;101451.03;10431863;28;20041;-77
2023/06/12 13:05:28;;;;;;;0.10;0.10;;;;;;;33.66;44.25;101439.47;10456701;28;20502;-78
2023/06/12 13:10:30;;;;;;;0.40;0.30;;;;;;;34.00;45.38;101432.84;10467392;28;20048;-78
2023/06/12 13:15:31;;;;;;;0.45;0.25;;;;;;;33.90;45.13;101437.06;10453564;28;20052;-77
2023/06/12 13:20:33;;;;;;;0.28;0.28;;;;;;;33.83;44.34;101435.72;10469623;28;20049;-79
2023/06/12 13:25:35;;;;;;;0.22;0.20;;;;;;;33.13;45.62;101431.19;10451339;28;20088;-81
2023/06/12 13:30:37;;;;;;;0.43;0.38;;;;;;;31.65;44.14;101446.66;10412823;28;20080;-81
2023/06/12 13:35:38;;;;;;;0.22;0.22;;;;;;;32.43;43.54;101432.63;10441999;28;20115;-81
2023/06/12 13:40:40;;;;;;;0.38;0.30;;;;;;;32.89;44.89;101435.22;10445478;28;20061;-81
2023/06/12 13:45:42;;;;;;;0.17;0.17;;;;;;;32.40;44.29;101436.31;10446017;28;20059;-80
2023/06/12 13:50:43;;;;;;;0.93;0.47;;;;;;;32.85;44.97;101436.38;10428763;28;20049;-81
2023/06/12 13:55:46;;;;;;;0.45;0.35;;;;;;;32.85;45.01;101431.03;10425303;28;20041;-79
2023/06/12 14:00:47;;;;;;;0.40;0.40;;;;;;;32.24;41.00;101436.34;10455884;28;20459;-80
2023/06/12 14:05:49;;;;;;;0.80;0.55;;;;;;;33.15;43.13;101430.13;10457652;28;20045;-80
2023/06/12 14:10:51;;;;;;;0.35;0.30;;;;;;;33.13;44.74;101425.84;10463680;28;20057;-81
2023/06/12 14:15:52;;;;;;;0.22;0.08;;;;;;;32.99;42.29;101421.34;10447598;28;20072;-81
2023/06/12 14:20:55;;;;;;;0.15;0.13;;;;;;;32.11;44.12;101421.97;10451824;28;20130;-80
2023/06/12 14:25:56;;;;;;;3.72;0.65;;;;;;;32.23;45.92;101421.28;10453418;28;20057;-79
2023/06/12 14:30:58;;;;;;;0.60;0.45;;;;;;;31.80;40.28;101407.72;10463569;28;20044;-80
2023/06/12 14:36:00;;;;;;;0.73;0.65;;;;;;;32.21;43.50;101408.97;10434497;28;20139;-80
2023/06/12 14:41:01;;;;;;;0.43;0.20;;;;;;;31.55;41.33;101425.00;10452556;28;20467;-80
2023/06/12 14:46:03;;;;;;;0.77;0.65;;;;;;;32.34;42.30;101402.00;10434348;28;20435;-79
2023/06/12 14:51:05;;;;;;;1.27;1.02;;;;;;;31.59;40.39;101407.94;10465280;28;20052;-79
2023/06/12 14:56:07;;;;;;;0.40;0.25;;;;;;;31.95;41.56;101401.53;10466080;28;20080;-80
2023/06/12 15:01:08;;;;;;;1.45;0.30;;;;;;;31.99;43.51;101406.66;10443950;28;20042;-80
2023/06/12 15:06:10;;;;;;;0.95;0.75;;;;;;;31.86;41.29;101402.03;10452621;28;20047;-79
2023/06/12 15:11:12;;;;;;;0.25;0.20;;;;;;;31.94;42.18;101407.81;10452370;28;20528;-79
2023/06/12 15:16:13;;;;;;;1.25;0.90;;;;;;;31.62;41.29;101407.75;10448275;28;20044;-79
2023/06/12 15:21:18;;;;;;;1.08;0.55;;;;;;;31.62;41.35;101410.41;10434185;28;20084;-79
2023/06/12 15:26:19;;;;;;;2.85;0.77;;;;;;;31.20;41.26;101413.63;10448086;28;20049;-78
2023/06/12 15:31:21;;;;;;;1.83;0.50;;;;;;;31.71;41.58;101402.91;10455099;28;20060;-79
2023/06/12 15:36:24;;;;;;;0.65;0.40;;;;;;;31.17;40.20;101404.00;10436509;28;20053;-79
2023/06/12 15:41:27;;;;;;;2.40;0.57;;;;;;;31.82;43.04;101395.19;10432877;28;20072;-79
2023/06/12 15:46:28;;;;;;;0.25;0.20;;;;;;;31.41;38.03;101406.28;10463253;28;20037;-79
2023/06/12 15:51:30;;;;;;;0.10;0.10;;;;;;;31.45;39.10;101391.88;10466352;28;20049;-79
2023/06/12 15:56:32;;;;;;;0.20;0.20;;;;;;;31.46;38.62;101393.59;10431683;28;20045;-80
2023/06/12 16:01:33;;;;;;;0.30;0.30;;;;;;;30.86;38.65;101394.97;10435004;28;20110;-79
2023/06/12 16:06:35;;;;;;;0.57;0.45;;;;;;;31.22;39.21;101393.09;10438650;28;20071;-78
2023/06/12 16:11:37;;;;;;;0.40;0.40;;;;;;;31.25;38.78;101391.13;10432286;28;20049;-79
2023/06/12 16:16:39;;;;;;;0.32;0.32;;;;;;;31.09;41.41;101396.44;10446566;28;20036;-79
2023/06/12 16:21:40;;;;;;;1.27;0.77;;;;;;;31.10;40.87;101391.94;10447016;28;20523;-79
2023/06/12 16:26:42;;;;;;;0.77;0.20;;;;;;;30.62;39.54;101392.63;10445420;28;20057;-79
2023/06/12 16:31:44;;;;;;;0.38;0.20;;;;;;;31.10;39.46;101391.94;10418764;28;20056;-80
2023/06/12 16:36:46;;;;;;;0.60;0.32;;;;;;;30.88;39.57;101387.75;10448552;28;20053;-79
2023/06/12 16:41:47;;;;;;;0.30;0.22;;;;;;;30.88;42.50;101392.22;10453772;28;20059;-83
2023/06/12 16:46:49;;;;;;;1.45;0.65;;;;;;;31.08;42.80;101388.50;10452209;28;20059;-80
2023/06/12 16:51:51;;;;;;;0.30;0.30;;;;;;;30.63;40.06;101381.06;10447130;28;20130;-81
2023/06/12 16:56:53;;;;;;;1.38;0.45;;;;;;;31.08;42.27;101380.53;10445525;28;20049;-79
2023/06/12 17:01:54;;;;;;;0.15;0.15;;;;;;;31.17;43.78;101375.59;10429408;28;20060;-81
2023/06/12 17:06:56;;;;;;;1.15;0.65;;;;;;;30.96;41.86;101369.56;10432482;28;20060;-81
2023/06/12 17:11:58;;;;;;;0.68;0.68;;;;;;;30.83;43.50;101374.69;10428556;28;20045;-79
2023/06/12 17:17:00;;;;;;;0.20;0.20;;;;;;;30.55;41.59;101372.59;10445524;28;20573;-81
2023/06/12 17:22:02;;;;;;;0.70;0.38;;;;;;;30.16;39.88;101373.63;10445790;28;20064;-80
2023/06/12 17:27:04;;;;;;;0.60;0.28;;;;;;;30.56;42.80;101371.66;10445789;28;20561;-80
2023/06/12 17:32:06;;;;;;;0.38;0.38;;;;;;;30.19;40.67;101373.50;10454949;28;20052;-79
2023/06/12 17:37:08;;;;;;;0.73;0.43;;;;;;;30.20;40.50;101372.53;10454173;28;20411;-80
2023/06/12 17:42:11;;;;;;;0.55;0.50;;;;;;;30.58;40.94;101367.13;10462603;28;20052;-80
2023/06/12 17:47:12;;;;;;;1.05;0.30;;;;;;;30.52;42.46;101364.78;10453527;28;20049;-81
2023/06/12 17:52:14;;;;;;;0.32;0.25;;;;;;;30.19;44.14;101366.38;10435392;28;20534;-80
2023/06/12 17:57:15;;;;;;;0.15;0.15;;;;;;;29.87;41.95;101354.63;10452414;28;20045;-79
2023/06/12 18:02:17;;;;;;;0.47;0.30;;;;;;;29.94;41.69;101358.75;10454954;28;20555;-80
2023/06/12 18:07:19;;;;;;;1.02;0.47;;;;;;;29.65;41.94;101368.94;10436711;28;20041;-80
2023/06/12 18:12:21;;;;;;;0.15;0.13;;;;;;;29.57;41.98;101363.13;10431415;28;20416;-80
2023/06/12 18:17:22;;;;;;;0.00;0.00;;;;;;;29.44;42.54;101366.38;10455680;28;20439;-79
2023/06/12 18:22:24;;;;;;;1.60;0.73;;;;;;;29.30;42.96;101376.72;10422532;28;20539;-79
2023/06/12 18:27:27;;;;;;;0.52;0.20;;;;;;;28.85;42.94;101377.84;10458886;28;20033;-80
2023/06/12 18:32:28;;;;;;;0.22;0.10;;;;;;;28.99;43.65;101370.16;10447630;28;20045;-79
2023/06/12 18:37:30;;;;;;;0.20;0.20;;;;;;;28.69;43.94;101373.22;10432724;28;20136;-79
2023/06/12 18:42:31;;;;;;;0.73;0.52;;;;;;;28.39;43.96;101381.50;10454611;28;20052;-79
2023/06/12 18:47:33;;;;;;;0.25;0.25;;;;;;;28.48;44.36;101380.25;10449583;28;20048;-80
2023/06/12 18:52:35;;;;;;;0.65;0.40;;;;;;;28.26;44.82;101377.66;10439497;28;20047;-80
2023/06/12 18:57:37;;;;;;;0.52;0.38;;;;;;;28.11;44.42;101377.31;10447574;28;20052;-80
2023/06/12 19:02:38;;;;;;;0.55;0.55;;;;;;;27.81;44.86;101380.22;10430388;28;20049;-80
2023/06/12 19:07:41;;;;;;;0.57;0.45;;;;;;;28.03;44.69;101385.56;10433322;28;20595;-80
2023/06/12 19:12:42;;;;;;;0.50;0.40;;;;;;;27.79;46.03;101387.41;10455121;28;20147;-80
2023/06/12 19:17:44;;;;;;;0.55;0.32;;;;;;;27.28;46.05;101394.56;10449771;28;20059;-79
2023/06/12 19:22:46;;;;;;;0.10;0.10;;;;;;;27.28;46.65;101385.78;10449266;28;20102;-79
2023/06/12 19:27:48;;;;;;;0.95;0.65;;;;;;;26.81;48.04;101403.25;10432273;28;20037;-79
2023/06/12 19:32:50;;;;;;;0.00;0.00;;;;;;;27.03;46.56;101402.50;10449671;28;20048;-79
2023/06/12 19:37:51;;;;;;;0.10;0.10;;;;;;;26.63;48.07;101402.09;10442306;28;20573;-82
2023/06/12 19:42:53;;;;;;;0.95;0.45;;;;;;;26.54;48.74;101411.19;10449208;28;20056;-80
2023/06/12 19:47:55;;;;;;;0.43;0.25;;;;;;;26.37;48.68;101409.06;10450814;28;20059;-79
2023/06/12 19:52:59;;;;;;;0.00;0.00;;;;;;;26.13;49.71;101431.88;10464590;28;20153;-79
2023/06/12 19:58:01;;;;;;;0.00;0.00;;;;;;;26.17;49.23;101428.22;10420426;28;20048;-82
2023/06/12 20:03:03;;;;;;;0.10;0.10;;;;;;;26.01;49.17;101437.50;10450982;28;20059;-81
2023/06/12 20:08:06;;;;;;;0.00;0.00;;;;;;;25.63;49.38;101445.63;10447106;28;20045;-82
2023/06/12 20:13:07;;;;;;;0.28;0.28;;;;;;;25.70;49.08;101447.16;10434206;28;20057;-82
2023/06/12 20:18:09;;;;;;;0.45;0.35;;;;;;;25.72;48.69;101452.44;10445972;28;20053;-79
2023/06/12 20:23:11;;;;;;;0.30;0.30;;;;;;;25.59;49.32;101447.47;10458158;28;20049;-81
2023/06/12 20:28:12;;;;;;;0.30;0.30;;;;;;;25.42;48.31;101450.59;10452527;28;20404;-78
2023/06/12 20:33:15;;;;;;;0.30;0.20;;;;;;;25.37;48.49;101457.75;10427154;28;20056;-79
2023/06/12 20:38:17;;;;;;;0.75;0.28;;;;;;;25.36;48.81;101461.28;10447728;28;20045;-79
2023/06/12 20:43:19;;;;;;;0.52;0.45;;;;;;;25.49;48.45;101467.13;10435305;28;20049;-82
2023/06/12 20:48:21;;;;;;;0.10;0.08;;;;;;;24.99;50.52;101476.28;10445107;28;20045;-82
2023/06/12 20:53:23;;;;;;;0.00;0.00;;;;;;;24.71;54.24;101474.34;10443160;28;20496;-82
2023/06/12 20:58:25;;;;;;;0.20;0.20;;;;;;;24.27;56.32;101481.50;10445725;28;20040;-82
2023/06/12 21:03:31;;;;;;;0.10;0.10;;;;;;;23.97;58.63;101476.00;10426772;28;20506;-82
2023/06/12 21:08:36;;;;;;;0.20;0.03;;;;;;;23.96;59.29;101476.03;10442679;28;20575;-82
2023/06/12 21:13:38;;;;;;;0.00;0.00;;;;;;;23.68;57.05;101480.06;10447348;28;20059;-82
2023/06/12 21:18:39;;;;;;;1.55;0.28;;;;;;;23.64;57.72;101478.41;10437740;28;20088;-82
2023/06/12 21:23:41;;;;;;;0.20;0.20;;;;;;;23.59;54.80;101481.13;10455730;28;20049;-81
2023/06/12 21:28:43;;;;;;;0.30;0.30;;;;;;;23.70;54.01;101475.66;10441339;28;20049;-82
2023/06/12 21:33:45;;;;;;;0.08;0.05;;;;;;;23.62;52.39;101477.56;10447310;28;20580;-81
2023/06/12 21:38:47;;;;;;;0.00;0.00;;;;;;;23.61;52.68;101474.03;10431371;28;20048;-82
2023/06/12 21:43:49;;;;;;;0.00;0.00;;;;;;;23.24;52.75;101480.00;10430976;28;20060;-82
2023/06/12 21:48:51;;;;;;;10.13;0.47;;;;;;;22.62;59.31;101474.88;10448910;28;20080;-82
2023/06/12 21:53:52;;;;;;;0.00;0.00;;;;;;;23.01;53.98;101476.91;10435106;28;20049;-82
2023/06/12 21:58:54;;;;;;;0.03;0.03;;;;;;;22.68;54.33;101480.03;10459459;28;20063;-82
2023/06/12 22:03:56;;;;;;;0.10;0.08;;;;;;;22.44;53.55;101482.16;10453612;28;20053;-81
2023/06/12 22:08:57;;;;;;;0.10;0.10;;;;;;;22.50;53.36;101474.19;10419745;28;20065;-82
2023/06/12 22:13:59;;;;;;;0.10;0.10;;;;;;;22.61;52.49;101478.38;10448617;28;20043;-82
2023/06/12 22:19:01;;;;;;;0.00;0.00;;;;;;;22.31;54.16;101480.53;10429401;28;20048;-81
2023/06/12 22:24:03;;;;;;;0.00;0.00;;;;;;;22.01;56.31;101474.78;10451015;28;20118;-82
2023/06/12 22:29:05;;;;;;;0.00;0.00;;;;;;;21.67;63.04;101483.09;10433700;28;20060;-82
2023/06/12 22:34:06;;;;;;;0.00;0.00;;;;;;;21.20;64.63;101477.41;10452891;28;20710;-81
2023/06/12 22:39:08;;;;;;;0.20;0.20;;;;;;;21.50;61.80;101470.13;10451549;28;20045;-82
2023/06/12 22:44:09;;;;;;;0.08;0.08;;;;;;;21.79;58.95;101482.94;10455080;28;20068;-82
2023/06/12 22:49:14;;;;;;;0.10;0.10;;;;;;;21.57;60.38;101479.69;10450549;28;20044;-82
2023/06/12 22:54:20;;;;;;;0.00;0.00;;;;;;;21.19;64.21;101473.91;10465416;28;20041;-82
2023/06/12 22:59:22;;;;;;;0.00;0.00;;;;;;;21.19;71.83;101471.28;10472776;28;20291;-82
2023/06/12 23:04:24;;;;;;;0.00;0.00;;;;;;;20.99;67.33;101475.84;10448438;28;20037;-82
2023/06/12 23:09:25;;;;;;;0.10;0.10;;;;;;;21.31;64.37;101472.94;10446165;28;20051;-82